Phillips, WI (54555)

12:28 AM CST on December 10, 2016 (GMT -0600)
Downtown (BP station) | | Change Station

Elev 1470 ft 45.69 °N, 90.40 °W | Updated 11 seconds ago

Overcast
Overcast
8.8 °F
Feels Like 9 °F
N
0.0
Wind Variable Wind from North
Gusts 8.0 mph

Today
High -- | Low -- °F
--% Chance of Precip.
Yesterday
High -- | Low -- °F
Precip. -- in
Pressure 30.37 in
Visibility 10.0 miles
Clouds Scattered Clouds 1900 ft
Overcast 3100 ft
Windchill 9 °F
Dew Point 4 °F
Humidity 82%
Rainfall 0.00 in
Snow Depth Not available.
7:31 AM 4:17 PM
Waxing Gibbous, 81% visible
METAR KPBH 100615Z AUTO 31003KT 10SM SCT019 OVC031 M13/M16 A3037 RMK AO2 T11301160
Pressure 30.37 in
Visibility 10.0 miles
Clouds Scattered Clouds 1900 ft
Overcast 3100 ft
Windchill 9 °F
Dew Point 4 °F
Humidity 82%
Rainfall 0.00 in
Snow Depth Not available.
7:31 AM 4:17 PM
Waxing Gibbous, 81% visible
METAR KPBH 100615Z AUTO 31003KT 10SM SCT019 OVC031 M13/M16 A3037 RMK AO2 T11301160

10-Day Weather Forecast

Almanac

Astronomy

Dec. 10, 2016 Rise Set
Actual Time
Civil Twilight
Nautical Twilight
Astronomical Twilight
Moon
Length of Visible Light
Length of Day
Tomorrow will be .
, % of the Moon is Illuminated

Today's Extremes

State Highs State Lows

Community

WunderPhotos

Upload Photos

1,956,527 photos uploaded!

WunderBlog® & News

Nearby

Air Quality

  Air Quality AQ Index Pollutant
Not available.

Snow Depth

Station Depth Elevation

Earthquake Activity

City Distance Mag. Time & Date
Minimum magnitude displayed is 2.5.

Coastal Water Temperatures

Place Temperature

Stations

Nearby Weather Stations

Station Location Temp. Windchill Dew Point Humidity Wind Precip. Elev Updated Type
                   

Watches & Warnings

There are currently no watches in effect.